Time;durP1;ratioP1;P1;durP2;ratioP2;P2;SDS_P1;SDS_P2;PMS_P1;PMS_P2;Temp;Humidity;BMP_temperature;BMP_pressure;BME280_temperature;BME280_humidity;BME280_pressure;Samples;Min_cycle;Max_cycle;Signal;HPM_P1;HPM_P2
2022/06/23 00:02:28;;;;;;;6.47;3.55;;;;;;;12.66;70.82;98440.88;5053628;28;20044;-66
2022/06/23 00:05:00;;;;;;;3.35;3.00;;;;;;;12.65;70.79;98450.72;5053284;28;20056;-65
2022/06/23 00:07:31;;;;;;;5.80;3.20;;;;;;;12.64;70.83;98446.47;5052465;28;20124;-65
2022/06/23 00:10:03;;;;;;;5.38;3.10;;;;;;;12.63;70.65;98447.53;5052198;28;20064;-65
2022/06/23 00:12:39;;;;;;;5.95;3.20;;;;;;;12.62;70.71;98451.28;5053387;28;20053;-65
2022/06/23 00:15:05;;;;;;;5.18;3.10;;;;;;;12.63;70.67;98444.09;5052198;28;20396;-66
2022/06/23 00:17:40;;;;;;;5.68;3.30;;;;;;;12.61;70.53;98443.56;5053517;28;20041;-65
2022/06/23 00:20:21;;;;;;;5.20;3.05;;;;;;;12.62;70.45;98445.97;5053307;28;20552;-65
2022/06/23 00:23:02;;;;;;;3.85;3.10;;;;;;;12.60;70.55;98453.41;5051752;28;20047;-65
2022/06/23 00:25:38;;;;;;;4.28;3.13;;;;;;;12.59;70.45;98445.69;5052339;28;20041;-65
2022/06/23 00:28:04;;;;;;;5.50;3.50;;;;;;;12.57;70.72;98451.28;5035575;28;20072;-65
2022/06/23 00:30:38;;;;;;;6.97;4.00;;;;;;;12.54;70.69;98456.38;5052148;28;20040;-66
2022/06/23 00:33:06;;;;;;;3.40;2.78;;;;;;;12.53;70.56;98458.22;5051761;28;20029;-65
2022/06/23 00:35:32;;;;;;;6.68;2.88;;;;;;;12.52;70.60;98455.84;5052973;28;20507;-65
2022/06/23 00:37:57;;;;;;;3.88;2.70;;;;;;;12.49;70.77;98462.50;5035326;28;20090;-65
2022/06/23 00:40:24;;;;;;;3.25;2.90;;;;;;;12.45;70.94;98448.16;5051729;28;20105;-65
2022/06/23 00:42:56;;;;;;;3.70;2.80;;;;;;;12.41;70.92;98457.72;5018609;28;20057;-65
2022/06/23 00:45:53;;;;;;;5.82;3.38;;;;;;;12.42;70.90;98462.00;5051648;28;20095;-66
2022/06/23 00:48:51;;;;;;;3.90;2.80;;;;;;;12.46;70.94;98461.16;5049548;28;20053;-66
2022/06/23 00:51:24;;;;;;;6.43;3.10;;;;;;;12.58;70.33;98457.41;5047356;28;20048;-64
2022/06/23 00:54:04;;;;;;;7.30;3.17;;;;;;;12.70;69.84;98452.56;5051432;28;20487;-65
2022/06/23 00:56:45;;;;;;;4.30;3.00;;;;;;;12.85;69.01;98455.16;5052887;28;20441;-64
2022/06/23 00:59:19;;;;;;;3.92;2.72;;;;;;;13.03;68.64;98450.25;5052525;28;20491;-64
2022/06/23 01:01:51;;;;;;;4.10;2.90;;;;;;;13.19;67.70;98451.75;5051482;28;20128;-66
2022/06/23 01:04:41;;;;;;;4.60;3.42;;;;;;;13.37;66.96;98443.09;5052383;28;20543;-63
2022/06/23 01:07:36;;;;;;;3.08;2.78;;;;;;;13.62;65.83;98452.75;5052662;28;20633;-65
2022/06/23 01:10:17;;;;;;;3.60;2.47;;;;;;;13.89;64.85;98451.44;5052389;28;20047;-64
2022/06/23 01:12:54;;;;;;;4.93;2.90;;;;;;;14.06;63.99;98456.34;5052122;28;20045;-64
2022/06/23 01:15:26;;;;;;;5.13;2.63;;;;;;;14.23;63.67;98453.22;5052473;28;20108;-65
2022/06/23 01:18:06;;;;;;;4.93;3.08;;;;;;;14.44;62.71;98457.25;5051176;28;20045;-65
2022/06/23 01:20:32;;;;;;;;;;;;;;;14.68;61.71;98461.78;5052799;28;20053;-65
2022/06/23 01:23:16;;;;;;;5.75;2.97;;;;;;;14.92;60.98;98461.72;5052363;28;19928;-66
2022/06/23 01:25:42;;;;;;;4.60;2.65;;;;;;;15.22;60.05;98473.84;5051990;28;20057;-64
2022/06/23 01:28:08;;;;;;;3.70;2.53;;;;;;;15.45;59.45;98474.81;5052426;28;20402;-65
2022/06/23 01:30:59;;;;;;;5.97;2.70;;;;;;;15.75;58.17;98473.56;5051928;28;20040;-65
2022/06/23 01:33:38;;;;;;;4.80;2.80;;;;;;;16.05;57.35;98482.13;5050300;28;20052;-65
2022/06/23 01:36:19;;;;;;;6.43;3.10;;;;;;;16.34;56.11;98476.50;5050463;28;20101;-64
2022/06/23 01:39:04;;;;;;;4.50;2.90;;;;;;;16.62;55.34;98474.63;5033916;28;20040;-64
2022/06/23 01:41:41;;;;;;;4.78;2.83;;;;;;;16.95;54.40;98482.53;5051914;28;20118;-63
2022/06/23 01:44:13;;;;;;;3.72;3.00;;;;;;;17.07;53.75;98482.00;5051581;28;20122;-65
2022/06/23 01:46:42;;;;;;;3.33;2.45;;;;;;;17.33;53.19;98482.22;5051888;28;20045;-64
2022/06/23 01:49:13;;;;;;;3.20;2.90;;;;;;;17.57;52.18;98484.59;5051586;28;20139;-65
2022/06/23 01:51:42;;;;;;;2.85;2.40;;;;;;;17.94;51.24;98483.41;5051737;28;20422;-65
2022/06/23 01:54:23;;;;;;;3.40;2.70;;;;;;;18.21;50.45;98487.81;5050094;28;20364;-65
2022/06/23 01:56:57;;;;;;;3.10;2.50;;;;;;;18.46;49.63;98494.34;5051766;28;20037;-65
2022/06/23 01:59:31;;;;;;;3.13;2.47;;;;;;;18.87;49.14;98492.44;5050105;28;20072;-66
2022/06/23 02:02:25;;;;;;;4.13;3.05;;;;;;;19.08;47.86;98496.09;5051705;28;20053;-65
2022/06/23 02:04:51;;;;;;;3.25;2.60;;;;;;;19.16;47.93;98503.38;5051293;28;20091;-65
2022/06/23 02:07:34;;;;;;;2.58;2.38;;;;;;;19.30;47.53;98511.28;5051358;28;20045;-65
2022/06/23 02:10:15;;;;;;;3.03;2.50;;;;;;;19.50;46.88;98505.28;5033559;28;20400;-64
2022/06/23 02:12:51;;;;;;;3.13;2.42;;;;;;;19.81;45.82;98515.06;5049924;28;20502;-65
2022/06/23 02:15:49;;;;;;;3.75;2.55;;;;;;;19.81;45.77;98516.97;5050377;28;20091;-65
2022/06/23 02:18:35;;;;;;;3.28;2.40;;;;;;;19.95;45.75;98522.94;5051555;28;20073;-66
2022/06/23 02:21:35;;;;;;;3.97;2.47;;;;;;;20.09;45.08;98534.31;5050149;28;20052;-65
2022/06/23 02:24:26;;;;;;;4.03;2.40;;;;;;;20.35;44.45;98528.03;5049807;28;20044;-64
2022/06/23 02:27:03;;;;;;;2.83;2.55;;;;;;;20.53;44.13;98536.84;5050560;28;20135;-65
2022/06/23 02:29:53;;;;;;;2.97;2.15;;;;;;;20.79;43.28;98542.13;5051278;28;20087;-64
2022/06/23 02:32:29;;;;;;;2.90;2.38;;;;;;;21.19;42.51;98547.91;5049981;28;20044;-64
2022/06/23 02:35:07;;;;;;;4.07;2.42;;;;;;;20.91;43.05;98550.28;5050112;28;20169;-65
2022/06/23 02:37:56;;;;;;;4.18;2.22;;;;;;;20.84;43.22;98548.09;5051383;28;20045;-64
2022/06/23 02:40:40;;;;;;;3.85;2.30;;;;;;;21.39;42.08;98553.66;5016830;28;20068;-64
2022/06/23 02:43:13;;;;;;;4.80;2.28;;;;;;;21.17;42.55;98560.91;5049971;28;20080;-65
2022/06/23 02:45:56;;;;;;;3.17;2.35;;;;;;;21.39;42.16;98567.94;5051994;28;20493;-65
2022/06/23 02:48:40;;;;;;;3.90;2.70;;;;;;;21.35;42.13;98572.34;5053890;28;20499;-65
2022/06/23 02:51:30;;;;;;;4.18;2.53;;;;;;;21.38;42.12;98571.72;5053760;28;20408;-66
2022/06/23 02:54:30;;;;;;;5.00;2.67;;;;;;;21.32;42.31;98575.69;5053910;28;20045;-64
2022/06/23 02:57:09;;;;;;;3.28;2.60;;;;;;;21.73;41.30;98574.94;5055078;28;20048;-65
2022/06/23 03:00:00;;;;;;;5.00;2.53;;;;;;;21.82;41.05;98568.66;5054841;28;20052;-66
2022/06/23 03:02:31;;;;;;;2.63;2.42;;;;;;;21.72;41.95;98583.38;5053546;28;20513;-64
2022/06/23 03:05:06;;;;;;;3.97;2.40;;;;;;;22.05;40.86;98582.59;5037075;28;20113;-64
2022/06/23 03:07:41;;;;;;;4.22;2.60;;;;;;;22.43;39.90;98582.38;5036955;28;20041;-64
2022/06/23 03:10:32;;;;;;;3.25;2.70;;;;;;;22.42;39.74;98586.97;5054875;28;20045;-65
2022/06/23 03:13:10;;;;;;;3.33;2.72;;;;;;;22.22;40.02;98593.25;5054459;28;20461;-63
2022/06/23 03:16:05;;;;;;;6.57;3.00;;;;;;;22.26;40.09;98596.06;5053577;28;20127;-66
2022/06/23 03:18:36;;;;;;;7.65;2.58;;;;;;;22.81;39.32;98587.47;5053227;28;20048;-64
2022/06/23 03:21:05;;;;;;;3.35;2.50;;;;;;;22.95;38.72;98603.38;5053224;28;20041;-66
2022/06/23 03:23:42;;;;;;;3.38;2.40;;;;;;;23.16;39.05;98591.66;5053317;28;20057;-65
2022/06/23 03:26:29;;;;;;;4.25;2.85;;;;;;;22.98;38.97;98608.09;5053108;28;20056;-65
2022/06/23 03:29:15;;;;;;;5.05;3.03;;;;;;;22.85;38.96;98609.19;5053082;28;20064;-65
2022/06/23 03:32:01;;;;;;;4.00;2.53;;;;;;;22.82;39.38;98612.56;5054365;28;20033;-65
2022/06/23 03:34:33;;;;;;;6.30;2.78;;;;;;;22.59;39.49;98610.31;5054413;28;20040;-64
2022/06/23 03:37:02;;;;;;;4.70;2.40;;;;;;;22.41;39.78;98615.13;5036402;28;20484;-65
2022/06/23 03:42:25;;;;;;;4.35;2.55;;;;;;;22.90;38.95;98609.75;5053918;28;20454;-65
2022/06/23 03:45:18;;;;;;;3.92;2.60;;;;;;;22.89;39.07;98608.19;5052680;28;20144;-65
2022/06/23 03:47:49;;;;;;;3.53;2.45;;;;;;;23.33;38.80;98610.31;5050482;28;20047;-65
2022/06/23 03:50:29;;;;;;;3.63;2.40;;;;;;;23.03;38.80;98620.56;5036049;28;20060;-65
2022/06/23 03:52:59;;;;;;;4.57;2.65;;;;;;;23.09;38.40;98627.38;5052738;28;20056;-64
2022/06/23 03:55:48;;;;;;;3.20;2.72;;;;;;;23.01;39.18;98625.56;5052416;28;20502;-70
2022/06/23 03:58:22;;;;;;;4.32;2.78;;;;;;;22.75;39.71;98625.84;5051874;28;20115;-64
2022/06/23 04:01:00;;;;;;;7.20;2.50;;;;;;;22.42;39.89;98624.00;5052478;28;20511;-66
2022/06/23 04:03:35;;;;;;;3.13;2.60;;;;;;;22.53;39.94;98622.44;5053990;28;20051;-64
2022/06/23 04:06:09;;;;;;;5.43;2.50;;;;;;;22.74;39.25;98635.88;5052732;28;20098;-65
2022/06/23 04:08:45;;;;;;;4.75;2.80;;;;;;;22.49;39.48;98629.63;5052146;28;20131;-66
2022/06/23 04:14:02;;;;;;;2.88;2.40;;;;;;;22.49;40.12;98632.34;5052448;28;20076;-65
2022/06/23 04:16:29;;;;;;;2.90;2.40;;;;;;;22.65;39.70;98630.56;5052098;28;20037;-65
2022/06/23 04:18:55;;;;;;;5.53;2.13;;;;;;;22.99;39.27;98636.69;5053553;28;20124;-64
2022/06/23 04:21:24;;;;;;;5.40;2.30;;;;;;;23.01;38.76;98633.66;5053146;28;20043;-65
2022/06/23 04:23:55;;;;;;;3.53;2.33;;;;;;;23.03;38.36;98643.00;5051976;28;20052;-65
2022/06/23 04:26:25;;;;;;;4.45;2.35;;;;;;;22.94;39.23;98639.59;5053120;28;20503;-65
2022/06/23 04:28:54;;;;;;;7.30;2.85;;;;;;;22.96;39.08;98642.78;5052342;28;20049;-64
2022/06/23 04:31:26;;;;;;;4.63;2.08;;;;;;;22.60;39.71;98646.19;5052017;28;20041;-64
2022/06/23 04:33:53;;;;;;;3.85;2.28;;;;;;;22.59;40.21;98653.53;5051942;28;20037;-64
2022/06/23 04:36:24;;;;;;;3.05;2.50;;;;;;;22.93;39.63;98648.81;5051995;28;20148;-64
2022/06/23 04:39:01;;;;;;;3.47;2.03;;;;;;;23.18;39.45;98665.06;5052952;28;20131;-65
2022/06/23 04:41:35;;;;;;;2.42;2.22;;;;;;;23.45;37.91;98658.97;5051582;28;20120;-65
2022/06/23 04:44:23;;;;;;;2.70;2.35;;;;;;;23.66;37.84;98664.22;5052628;28;20071;-65
2022/06/23 04:46:52;;;;;;;4.93;2.72;;;;;;;23.67;37.50;98662.31;5051530;28;20119;-65
2022/06/23 04:49:23;;;;;;;3.13;2.15;;;;;;;23.86;36.62;98656.34;5053237;28;20047;-65
2022/06/23 04:51:55;;;;;;;5.18;2.42;;;;;;;23.73;37.28;98669.09;5034901;28;20052;-65
2022/06/23 04:54:33;;;;;;;4.13;2.40;;;;;;;23.80;37.07;98664.69;5051501;28;20114;-65
2022/06/23 04:57:27;;;;;;;6.20;2.30;;;;;;;23.64;37.04;98657.59;5051437;28;20045;-65
2022/06/23 04:59:54;;;;;;;3.03;2.13;;;;;;;23.52;36.83;98663.81;5033402;28;20463;-65
2022/06/23 05:02:30;;;;;;;2.85;1.95;;;;;;;23.51;36.71;98668.44;5052661;28;20067;-64
2022/06/23 05:05:18;;;;;;;3.60;2.30;;;;;;;23.38;36.79;98666.84;5051280;28;20053;-66
2022/06/23 05:08:02;;;;;;;3.25;2.33;;;;;;;23.38;37.44;98661.44;5051079;28;20075;-65
2022/06/23 05:10:44;;;;;;;2.42;1.90;;;;;;;23.33;37.44;98661.69;5052126;28;20037;-65
2022/06/23 05:13:16;;;;;;;3.10;1.90;;;;;;;23.23;38.05;98665.63;5051973;28;20080;-66
2022/06/23 05:16:02;;;;;;;3.15;2.35;;;;;;;23.16;37.59;98670.03;5052319;28;20044;-66
2022/06/23 05:18:31;;;;;;;3.20;2.20;;;;;;;22.77;38.26;98681.13;5052387;28;20065;-65
2022/06/23 05:21:01;;;;;;;2.78;2.22;;;;;;;22.72;39.14;98675.16;5050826;28;20045;-64
2022/06/23 05:23:36;;;;;;;3.30;1.93;;;;;;;22.50;38.67;98676.31;5050902;28;20567;-64
2022/06/23 05:26:16;;;;;;;3.50;2.20;;;;;;;22.34;39.22;98679.66;5052106;28;20190;-66
2022/06/23 05:28:42;;;;;;;4.18;2.35;;;;;;;21.94;40.17;98682.03;5051794;28;20056;-65
2022/06/23 05:31:15;;;;;;;2.50;2.10;;;;;;;21.73;40.91;98665.84;5050644;28;20045;-66
2022/06/23 05:33:49;;;;;;;2.90;2.20;;;;;;;21.64;40.21;98662.44;5051812;28;20510;-66
2022/06/23 05:36:22;;;;;;;3.83;2.42;;;;;;;21.39;40.54;98670.38;5052027;28;20044;-65
2022/06/23 05:39:05;;;;;;;3.22;2.30;;;;;;;21.21;40.73;98679.66;5050842;28;20056;-65
2022/06/23 05:41:36;;;;;;;2.88;2.03;;;;;;;21.07;40.48;98688.72;5051950;28;20037;-65
2022/06/23 05:44:13;;;;;;;4.82;1.95;;;;;;;20.78;40.10;98686.75;5034067;28;20359;-65
2022/06/23 05:46:40;;;;;;;3.38;2.00;;;;;;;20.66;41.02;98680.47;5050376;28;20045;-65
2022/06/23 05:49:23;;;;;;;2.28;1.98;;;;;;;20.58;40.87;98672.09;5051932;28;20489;-65
2022/06/23 05:51:59;;;;;;;3.00;2.20;;;;;;;20.52;41.56;98684.13;5050370;28;20049;-65
2022/06/23 05:54:40;;;;;;;4.10;2.55;;;;;;;20.54;41.85;98684.63;5052045;28;20083;-65
2022/06/23 05:57:12;;;;;;;3.70;1.80;;;;;;;20.15;41.31;98699.06;5050352;28;20128;-65
2022/06/23 06:00:07;;;;;;;4.78;2.20;;;;;;;20.15;41.27;98699.06;5051433;28;20561;-66
2022/06/23 06:02:39;;;;;;;5.35;1.90;;;;;;;20.19;41.79;98697.31;5050229;28;20098;-65
2022/06/23 06:05:14;;;;;;;3.03;1.95;;;;;;;20.24;40.92;98688.28;5051482;28;20468;-66
2022/06/23 06:07:40;;;;;;;5.68;2.33;;;;;;;20.11;41.57;98693.50;5050080;28;20068;-66
2022/06/23 06:10:12;;;;;;;6.13;2.40;;;;;;;20.08;41.61;98696.03;5050312;28;20052;-65
2022/06/23 06:12:39;;;;;;;5.00;1.98;;;;;;;20.04;41.38;98695.88;5050118;28;20057;-64
2022/06/23 06:15:28;;;;;;;3.25;1.90;;;;;;;20.01;40.60;98695.72;5051284;28;20044;-65
2022/06/23 06:18:18;;;;;;;5.68;2.05;;;;;;;20.07;41.83;98697.16;5049884;28;20576;-65
2022/06/23 06:20:44;;;;;;;2.25;2.03;;;;;;;20.03;40.20;98686.25;5049262;28;20052;-65
2022/06/23 06:23:23;;;;;;;3.70;2.10;;;;;;;19.90;41.25;98698.72;5051443;28;20479;-66
2022/06/23 06:25:50;;;;;;;3.42;2.10;;;;;;;19.74;41.92;98706.47;5051195;28;20041;-65
2022/06/23 06:28:16;;;;;;;2.38;2.10;;;;;;;19.71;41.73;98700.94;5051313;28;20056;-66
2022/06/23 06:31:07;;;;;;;3.10;2.05;;;;;;;19.71;42.24;98709.78;5050650;28;20056;-65
2022/06/23 06:33:34;;;;;;;3.33;2.00;;;;;;;19.71;42.30;98704.41;5023270;28;20052;-65
2022/06/23 06:36:00;;;;;;;3.05;2.28;;;;;;;19.80;42.98;98701.72;5049769;28;20068;-65
2022/06/23 06:38:28;;;;;;;3.15;2.13;;;;;;;19.92;43.25;98703.78;5049850;28;20068;-66
2022/06/23 06:40:56;;;;;;;4.03;2.30;;;;;;;19.82;43.57;98704.88;5050888;28;20041;-65
2022/06/23 06:43:29;;;;;;;5.90;2.17;;;;;;;19.91;43.55;98700.31;5016760;28;20041;-66
2022/06/23 06:45:57;;;;;;;3.50;2.30;;;;;;;20.06;43.07;98707.13;5051107;28;20119;-66
2022/06/23 06:48:38;;;;;;;3.10;2.35;;;;;;;20.07;43.62;98706.00;5051243;28;20045;-66
2022/06/23 06:51:11;;;;;;;2.97;2.35;;;;;;;20.11;43.67;98693.50;5050886;28;20123;-65
2022/06/23 06:53:43;;;;;;;5.28;2.35;;;;;;;20.28;43.48;98716.13;5049565;28;20063;-67
2022/06/23 06:56:16;;;;;;;2.90;2.10;;;;;;;20.19;43.43;98708.84;5050709;28;20071;-66
2022/06/23 06:58:58;;;;;;;4.10;2.20;;;;;;;20.02;42.54;98719.59;5049522;28;20130;-67
2022/06/23 07:01:25;;;;;;;4.30;2.30;;;;;;;20.03;42.86;98688.94;5050614;28;20049;-67
2022/06/23 07:03:53;;;;;;;4.90;2.60;;;;;;;20.17;43.55;98696.81;5050826;28;20049;-66
2022/06/23 07:06:22;;;;;;;2.78;2.25;;;;;;;20.24;43.74;98696.38;5050693;28;20041;-64
2022/06/23 07:09:09;;;;;;;2.63;2.10;;;;;;;20.31;42.30;98715.50;5051071;28;20049;-66
2022/06/23 07:11:48;;;;;;;2.47;2.08;;;;;;;20.36;41.69;98718.03;5049053;28;20102;-66
2022/06/23 07:14:21;;;;;;;3.83;1.98;;;;;;;20.34;41.03;98707.56;5049465;28;20136;-65
2022/06/23 07:16:59;;;;;;;3.42;1.85;;;;;;;20.25;41.75;98706.78;5050691;28;20095;-66
2022/06/23 07:19:30;;;;;;;3.78;2.00;;;;;;;20.32;41.46;98711.69;5049476;28;20041;-65
2022/06/23 07:21:55;;;;;;;;;;;;;;;20.34;41.00;98722.94;5049754;28;20049;-65
2022/06/23 07:24:29;;;;;;;3.60;2.15;;;;;;;20.22;42.06;98725.47;5050311;28;19978;-66
2022/06/23 07:27:00;;;;;;;2.20;2.00;;;;;;;20.24;40.24;98710.59;5016221;28;20218;-66
2022/06/23 07:29:35;;;;;;;2.63;1.90;;;;;;;20.34;40.81;98701.41;5049087;28;20217;-65
2022/06/23 07:32:04;;;;;;;3.00;2.10;;;;;;;20.45;40.94;98705.34;5032746;28;20048;-67
2022/06/23 07:34:34;;;;;;;4.50;2.10;;;;;;;20.49;41.62;98711.66;5053838;28;20541;-67
2022/06/23 07:37:09;;;;;;;3.20;2.10;;;;;;;20.51;41.55;98719.44;5052688;28;20076;-66
2022/06/23 07:39:38;;;;;;;3.03;1.85;;;;;;;20.39;41.09;98731.63;5052474;28;20045;-65
2022/06/23 07:42:32;;;;;;;3.83;2.13;;;;;;;20.49;40.86;98727.03;5054040;28;20033;-66
2022/06/23 07:45:06;;;;;;;2.05;1.90;;;;;;;20.55;40.17;98718.50;5052473;28;20057;-66
2022/06/23 07:47:32;;;;;;;8.45;2.53;;;;;;;20.54;41.18;98734.97;5054144;28;20047;-66
2022/06/23 07:49:57;;;;;;;3.28;2.50;;;;;;;20.61;41.54;98722.59;5054028;28;20454;-66
2022/06/23 07:52:23;;;;;;;3.83;2.25;;;;;;;20.62;41.51;98726.91;5052653;28;20041;-66
2022/06/23 07:54:49;;;;;;;5.68;2.45;;;;;;;20.62;41.74;98723.41;5052483;28;20048;-67
2022/06/23 07:57:15;;;;;;;6.78;2.95;;;;;;;20.78;42.05;98731.75;5052744;28;20037;-65
2022/06/23 07:59:58;;;;;;;3.95;2.50;;;;;;;20.86;41.40;98728.28;5052257;28;20419;-65
2022/06/23 08:02:31;;;;;;;4.90;2.20;;;;;;;20.71;40.47;98739.56;5053958;28;20076;-66
2022/06/23 08:05:07;;;;;;;3.85;2.47;;;;;;;20.69;41.24;98728.31;5052569;28;20049;-67
2022/06/23 08:07:34;;;;;;;2.90;2.28;;;;;;;20.67;40.76;98728.63;5019182;28;20033;-66
2022/06/23 08:10:28;;;;;;;6.90;2.45;;;;;;;20.73;40.80;98726.53;5019357;28;20044;-66
2022/06/23 08:13:12;;;;;;;3.13;2.42;;;;;;;20.77;40.59;98730.97;5051913;28;20515;-65
2022/06/23 08:18:40;;;;;;;2.42;2.15;;;;;;;20.78;40.45;98740.63;5053199;28;20499;-67
2022/06/23 08:21:11;;;;;;;3.97;2.00;;;;;;;20.84;40.34;98722.41;5035324;28;20041;-67
2022/06/23 08:23:42;;;;;;;2.38;2.17;;;;;;;20.82;40.79;98732.69;5035363;28;20525;-67
2022/06/23 08:26:10;;;;;;;2.45;2.17;;;;;;;20.85;39.53;98748.22;5052282;28;20060;-66
2022/06/23 08:28:36;;;;;;;2.38;2.10;;;;;;;20.69;39.64;98741.78;5051784;28;20132;-66
2022/06/23 08:31:02;;;;;;;2.08;1.90;;;;;;;20.82;39.72;98730.81;5052913;28;20120;-65
2022/06/23 08:33:28;;;;;;;2.30;2.10;;;;;;;21.00;39.17;98741.53;5035107;28;20080;-66
2022/06/23 08:35:55;;;;;;;4.38;2.13;;;;;;;21.13;40.21;98742.44;5051883;28;20537;-67
2022/06/23 08:38:37;;;;;;;2.65;2.10;;;;;;;21.09;39.63;98737.69;5052848;28;20045;-66
2022/06/23 08:41:09;;;;;;;2.10;1.90;;;;;;;21.03;39.21;98749.78;5052903;28;20040;-66
2022/06/23 08:44:00;;;;;;;2.80;2.30;;;;;;;21.02;39.33;98753.56;5052692;28;20059;-66
2022/06/23 08:46:34;;;;;;;2.90;2.13;;;;;;;21.04;39.11;98753.25;5041963;28;20044;-67
2022/06/23 08:49:26;;;;;;;2.55;2.00;;;;;;;21.10;39.32;98751.97;5035121;28;20388;-67
2022/06/23 08:51:58;;;;;;;2.55;2.13;;;;;;;21.19;39.32;98754.63;5052487;28;20057;-65
2022/06/23 08:54:26;;;;;;;2.53;2.00;;;;;;;21.25;39.09;98750.63;5052956;28;20448;-67
2022/06/23 08:57:06;;;;;;;3.50;2.20;;;;;;;21.25;39.63;98761.41;5052754;28;20410;-67
2022/06/23 08:59:49;;;;;;;3.35;1.98;;;;;;;21.21;39.29;98752.41;5052622;28;20052;-66
2022/06/23 09:02:21;;;;;;;2.95;2.05;;;;;;;21.15;39.45;98753.69;5052919;28;20449;-66
2022/06/23 09:05:01;;;;;;;3.17;2.17;;;;;;;21.24;38.85;98752.56;5051334;28;20056;-65
2022/06/23 09:07:45;;;;;;;2.80;2.40;;;;;;;21.13;38.44;98766.69;5051177;28;20049;-67
2022/06/23 09:10:23;;;;;;;4.03;2.38;;;;;;;21.20;38.03;98762.38;5051392;28;20056;-67
2022/06/23 09:13:30;;;;;;;2.63;2.03;;;;;;;21.19;39.79;98738.47;5050849;28;20076;-66
2022/06/23 09:16:04;;;;;;;2.67;2.08;;;;;;;21.19;39.73;98763.50;5051850;28;20438;-66
2022/06/23 09:18:55;;;;;;;3.70;2.20;;;;;;;21.25;39.09;98772.19;5052383;28;20102;-66
2022/06/23 09:21:50;;;;;;;;;;;;;;;21.16;39.95;98760.66;5052707;28;20051;-66
2022/06/23 09:24:37;;;;;;;5.95;2.20;;;;;;;21.08;39.67;98756.88;5051131;28;19924;-68
2022/06/23 09:27:31;;;;;;;2.30;2.10;;;;;;;21.27;39.82;98760.00;5052310;28;20051;-65
2022/06/23 09:30:03;;;;;;;2.65;2.08;;;;;;;21.36;38.79;98749.19;5051899;28;20102;-67
2022/06/23 09:32:55;;;;;;;13.68;2.53;;;;;;;21.39;39.29;98774.72;5033921;28;20086;-67
2022/06/23 09:36:00;;;;;;;3.35;2.38;;;;;;;21.37;39.12;98772.34;5050390;28;20488;-66
2022/06/23 09:38:38;;;;;;;3.50;2.30;;;;;;;21.32;39.86;98778.69;5050482;28;20408;-66
2022/06/23 09:41:23;;;;;;;3.22;2.42;;;;;;;21.43;39.51;98779.13;5050783;28;20052;-68
2022/06/23 09:44:14;;;;;;;4.68;2.22;;;;;;;21.47;40.70;98768.47;5051409;28;20073;-66
2022/06/23 09:47:10;;;;;;;3.40;2.10;;;;;;;21.54;40.23;98768.78;5051974;28;20083;-67
2022/06/23 09:50:16;;;;;;;3.55;2.30;;;;;;;21.63;39.50;98776.81;5050353;28;20064;-65
2022/06/23 09:53:19;;;;;;;2.13;1.92;;;;;;;21.60;39.32;98785.56;5033767;28;20205;-66
2022/06/23 09:56:13;;;;;;;5.07;2.47;;;;;;;21.54;39.23;98782.25;5049643;28;20110;-66
2022/06/23 09:59:01;;;;;;;3.13;1.95;;;;;;;21.55;38.87;98778.44;5051322;28;20041;-68
2022/06/23 10:01:41;;;;;;;2.38;2.10;;;;;;;21.56;37.97;98769.25;5050426;28;20048;-67
2022/06/23 10:04:15;;;;;;;4.53;2.40;;;;;;;21.60;39.24;98775.56;5051348;28;20045;-66
2022/06/23 10:07:12;;;;;;;4.65;2.38;;;;;;;21.64;38.81;98775.69;5050179;28;20156;-66
2022/06/23 10:09:48;;;;;;;2.58;2.10;;;;;;;21.54;39.52;98796.53;5033472;28;20490;-66
2022/06/23 10:12:38;;;;;;;3.35;2.20;;;;;;;21.57;39.67;98765.44;5033360;28;20110;-66
2022/06/23 10:15:31;;;;;;;2.28;2.13;;;;;;;21.67;38.80;98775.06;5051161;28;20060;-67
2022/06/23 10:18:19;;;;;;;2.80;2.10;;;;;;;21.66;38.55;98776.19;5050241;28;20511;-66
2022/06/23 10:20:48;;;;;;;3.58;2.35;;;;;;;21.63;38.23;98784.91;5049839;28;20037;-65
2022/06/23 10:23:29;;;;;;;2.70;2.22;;;;;;;21.63;38.32;98774.91;5050074;28;20063;-66
2022/06/23 10:26:07;;;;;;;2.70;2.50;;;;;;;21.63;38.18;98780.31;5051155;28;20037;-67
2022/06/23 10:28:57;;;;;;;4.97;2.40;;;;;;;21.68;38.27;98779.34;5051402;28;20056;-66
2022/06/23 10:31:23;;;;;;;;;;;;;;;21.74;37.71;98775.34;5051802;28;20053;-66
2022/06/23 10:33:49;;;;;;;5.72;2.50;;;;;;;21.77;38.31;98775.47;5051048;28;19920;-66
2022/06/23 10:36:25;;;;;;;2.25;1.80;;;;;;;21.78;38.77;98781.66;5049712;28;20073;-66
2022/06/23 10:39:12;;;;;;;3.65;2.10;;;;;;;21.82;38.70;98784.50;5051285;28;20063;-67
2022/06/23 10:42:16;;;;;;;2.40;2.20;;;;;;;21.86;37.94;98771.94;5051327;28;20057;-66
2022/06/23 10:44:42;;;;;;;5.50;2.45;;;;;;;22.00;38.53;98783.25;5051152;28;20446;-66
2022/06/23 10:47:28;;;;;;;2.75;2.00;;;;;;;22.00;39.13;98781.38;5051332;28;20045;-67
2022/06/23 10:50:16;;;;;;;4.05;2.20;;;;;;;22.00;38.37;98791.34;5049959;28;20049;-66
2022/06/23 10:53:27;;;;;;;2.20;2.10;;;;;;;21.98;38.18;98801.69;5049605;28;20084;-66
2022/06/23 10:56:09;;;;;;;5.18;2.33;;;;;;;21.99;37.41;98795.19;5049593;28;20092;-66
2022/06/23 10:59:12;;;;;;;3.72;2.10;;;;;;;21.94;37.42;98781.88;5050816;28;20041;-66
2022/06/23 11:02:04;;;;;;;2.78;2.53;;;;;;;22.09;37.52;98786.72;5031579;28;20098;-66
2022/06/23 11:04:41;;;;;;;2.67;2.40;;;;;;;22.11;37.09;98775.56;5050614;28;20049;-65
2022/06/23 11:07:18;;;;;;;6.22;2.10;;;;;;;22.07;38.90;98782.75;5052668;28;20421;-67
2022/06/23 11:09:50;;;;;;;2.20;2.00;;;;;;;22.20;38.94;98779.03;5053710;28;20037;-65
2022/06/23 11:12:42;;;;;;;4.85;2.58;;;;;;;22.16;38.12;98776.16;5053252;28;20056;-67
2022/06/23 11:15:28;;;;;;;2.08;1.90;;;;;;;21.95;38.95;98791.56;5054516;28;20114;-65
2022/06/23 11:18:07;;;;;;;4.28;2.50;;;;;;;21.91;39.35;98772.53;5053226;28;20060;-65
2022/06/23 11:20:33;;;;;;;7.10;2.20;;;;;;;21.95;38.21;98775.38;5053535;28;20049;-66
2022/06/23 11:22:58;;;;;;;2.10;1.90;;;;;;;22.03;39.71;98796.13;5054685;28;20067;-65
2022/06/23 11:26:09;;;;;;;4.07;2.33;;;;;;;22.04;38.01;98792.28;5054173;28;20049;-67
2022/06/23 11:28:57;;;;;;;3.83;2.30;;;;;;;22.06;38.01;98773.06;5053924;28;20063;-67
2022/06/23 11:31:41;;;;;;;2.70;1.90;;;;;;;22.09;37.61;98788.59;5054339;28;20041;-67
2022/06/23 11:34:39;;;;;;;2.40;1.83;;;;;;;22.11;38.53;98803.34;5052954;28;20533;-66
2022/06/23 11:37:26;;;;;;;2.20;2.00;;;;;;;22.18;37.81;98805.56;5054457;28;20179;-65
2022/06/23 11:40:24;;;;;;;4.60;2.40;;;;;;;22.16;37.67;98789.66;5054177;28;20048;-67
2022/06/23 11:43:22;;;;;;;3.15;2.30;;;;;;;22.22;37.64;98777.59;5053049;28;20053;-67
2022/06/23 11:45:51;;;;;;;3.88;2.10;;;;;;;22.30;38.20;98786.75;5053445;28;20056;-66
2022/06/23 11:48:27;;;;;;;3.00;2.25;;;;;;;22.35;38.29;98786.53;5054280;28;20437;-68
2022/06/23 11:51:02;;;;;;;2.60;2.20;;;;;;;22.35;38.03;98805.44;5052992;28;20498;-67
2022/06/23 11:53:47;;;;;;;2.70;2.00;;;;;;;22.31;37.30;98793.72;5035857;28;20049;-66
2022/06/23 11:56:33;;;;;;;4.43;2.00;;;;;;;22.29;37.61;98797.84;5054033;28;20044;-65
2022/06/23 11:59:03;;;;;;;5.07;2.15;;;;;;;22.37;37.59;98786.22;5053500;28;20041;-65
2022/06/23 12:01:29;;;;;;;4.07;2.40;;;;;;;22.37;37.74;98791.63;5052214;28;20087;-67
2022/06/23 12:04:13;;;;;;;2.60;2.00;;;;;;;22.29;37.54;98800.56;5051959;28;20341;-66
2022/06/23 12:06:45;;;;;;;2.88;2.03;;;;;;;22.30;37.62;98799.47;5053493;28;20127;-66
2022/06/23 12:09:14;;;;;;;4.32;1.90;;;;;;;22.22;37.07;98798.41;5035565;28;20041;-66
2022/06/23 12:11:39;;;;;;;2.85;2.17;;;;;;;22.21;37.68;98794.91;5053278;28;20504;-66
2022/06/23 12:14:08;;;;;;;3.28;2.20;;;;;;;22.26;38.09;98801.22;5053797;28;20072;-66
2022/06/23 12:16:47;;;;;;;2.45;2.25;;;;;;;22.28;37.46;98797.06;5053563;28;20083;-66
2022/06/23 12:19:16;;;;;;;2.70;2.40;;;;;;;22.31;37.58;98787.53;5052753;28;20082;-65
2022/06/23 12:21:44;;;;;;;3.53;2.50;;;;;;;22.35;37.41;98786.53;5052119;28;20491;-66
2022/06/23 12:24:25;;;;;;;3.67;2.10;;;;;;;22.39;37.43;98775.88;5053133;28;20549;-67
2022/06/23 12:27:18;;;;;;;3.10;2.20;;;;;;;22.44;38.31;98784.56;5053470;28;20114;-66
2022/06/23 12:29:59;;;;;;;2.20;2.05;;;;;;;22.53;37.81;98794.50;5052827;28;20053;-65
2022/06/23 12:32:40;;;;;;;2.85;2.35;;;;;;;22.59;38.91;98798.56;5053436;28;20355;-65
2022/06/23 12:35:23;;;;;;;3.33;2.47;;;;;;;22.61;37.23;98785.53;5052937;28;20098;-65